sensor_id;sensor_type;location;lat;lon;timestamp;P1;durP1;ratioP1;P2;durP2;ratioP2
61756;SDS011;57225;61.460;24.060;2023-08-01T00:02:45;6.65;;;3.15;;
61756;SDS011;57225;61.460;24.060;2023-08-01T00:05:29;5.10;;;3.00;;
61756;SDS011;57225;61.460;24.060;2023-08-01T00:08:14;5.85;;;2.88;;
61756;SDS011;57225;61.460;24.060;2023-08-01T00:10:58;5.40;;;2.85;;
61756;SDS011;57225;61.460;24.060;2023-08-01T00:13:43;4.60;;;2.97;;
61756;SDS011;57225;61.460;24.060;2023-08-01T00:16:27;5.75;;;3.13;;
61756;SDS011;57225;61.460;24.060;2023-08-01T00:19:12;6.55;;;3.25;;
61756;SDS011;57225;61.460;24.060;2023-08-01T00:21:56;6.53;;;2.97;;
61756;SDS011;57225;61.460;24.060;2023-08-01T00:24:40;5.38;;;2.78;;
61756;SDS011;57225;61.460;24.060;2023-08-01T00:27:25;9.68;;;3.33;;
61756;SDS011;57225;61.460;24.060;2023-08-01T00:30:10;7.85;;;3.08;;
61756;SDS011;57225;61.460;24.060;2023-08-01T00:32:54;8.40;;;3.30;;
61756;SDS011;57225;61.460;24.060;2023-08-01T00:35:39;6.68;;;3.28;;
61756;SDS011;57225;61.460;24.060;2023-08-01T00:38:23;8.45;;;3.15;;
61756;SDS011;57225;61.460;24.060;2023-08-01T00:41:08;10.07;;;3.28;;
61756;SDS011;57225;61.460;24.060;2023-08-01T00:43:55;4.68;;;3.00;;
61756;SDS011;57225;61.460;24.060;2023-08-01T00:46:39;7.38;;;3.83;;
61756;SDS011;57225;61.460;24.060;2023-08-01T00:49:23;5.47;;;3.20;;
61756;SDS011;57225;61.460;24.060;2023-08-01T00:52:08;5.93;;;3.10;;
61756;SDS011;57225;61.460;24.060;2023-08-01T00:54:53;7.28;;;2.97;;
61756;SDS011;57225;61.460;24.060;2023-08-01T00:57:38;6.47;;;3.22;;
61756;SDS011;57225;61.460;24.060;2023-08-01T01:00:23;4.75;;;2.97;;
61756;SDS011;57225;61.460;24.060;2023-08-01T01:03:26;5.70;;;3.15;;
61756;SDS011;57225;61.460;24.060;2023-08-01T01:06:16;7.10;;;3.13;;
61756;SDS011;57225;61.460;24.060;2023-08-01T01:09:18;6.85;;;3.20;;
61756;SDS011;57225;61.460;24.060;2023-08-01T01:12:04;4.97;;;3.05;;
61756;SDS011;57225;61.460;24.060;2023-08-01T01:14:49;6.20;;;3.28;;
61756;SDS011;57225;61.460;24.060;2023-08-01T01:17:33;4.78;;;2.97;;
61756;SDS011;57225;61.460;24.060;2023-08-01T01:20:23;5.30;;;2.78;;
61756;SDS011;57225;61.460;24.060;2023-08-01T01:23:08;7.55;;;3.00;;
61756;SDS011;57225;61.460;24.060;2023-08-01T01:25:54;9.88;;;3.60;;
61756;SDS011;57225;61.460;24.060;2023-08-01T01:28:40;11.23;;;3.10;;
61756;SDS011;57225;61.460;24.060;2023-08-01T01:31:25;9.23;;;3.70;;
61756;SDS011;57225;61.460;24.060;2023-08-01T01:34:10;4.90;;;3.10;;
61756;SDS011;57225;61.460;24.060;2023-08-01T01:36:55;5.60;;;2.80;;
61756;SDS011;57225;61.460;24.060;2023-08-01T01:39:40;4.43;;;2.88;;
61756;SDS011;57225;61.460;24.060;2023-08-01T01:42:24;5.22;;;2.70;;
61756;SDS011;57225;61.460;24.060;2023-08-01T01:45:09;4.20;;;2.95;;
61756;SDS011;57225;61.460;24.060;2023-08-01T01:47:53;4.90;;;2.75;;
61756;SDS011;57225;61.460;24.060;2023-08-01T01:50:37;4.10;;;2.83;;
61756;SDS011;57225;61.460;24.060;2023-08-01T01:53:31;3.45;;;2.70;;
61756;SDS011;57225;61.460;24.060;2023-08-01T01:56:15;4.68;;;2.80;;
61756;SDS011;57225;61.460;24.060;2023-08-01T01:59:00;5.95;;;2.90;;
61756;SDS011;57225;61.460;24.060;2023-08-01T02:01:45;5.68;;;2.53;;
61756;SDS011;57225;61.460;24.060;2023-08-01T02:04:29;4.03;;;2.38;;
61756;SDS011;57225;61.460;24.060;2023-08-01T02:07:14;5.53;;;3.08;;
61756;SDS011;57225;61.460;24.060;2023-08-01T02:09:59;4.75;;;2.60;;
61756;SDS011;57225;61.460;24.060;2023-08-01T02:12:43;8.98;;;2.90;;
61756;SDS011;57225;61.460;24.060;2023-08-01T02:15:28;7.25;;;2.60;;
61756;SDS011;57225;61.460;24.060;2023-08-01T02:18:12;8.27;;;2.63;;
61756;SDS011;57225;61.460;24.060;2023-08-01T02:20:57;9.95;;;3.08;;
61756;SDS011;57225;61.460;24.060;2023-08-01T02:23:41;4.32;;;2.83;;
61756;SDS011;57225;61.460;24.060;2023-08-01T02:26:26;4.95;;;3.05;;
61756;SDS011;57225;61.460;24.060;2023-08-01T02:29:10;5.00;;;2.60;;
61756;SDS011;57225;61.460;24.060;2023-08-01T02:31:55;3.78;;;2.80;;
61756;SDS011;57225;61.460;24.060;2023-08-01T02:34:39;5.10;;;2.63;;
61756;SDS011;57225;61.460;24.060;2023-08-01T02:37:24;4.07;;;2.75;;
61756;SDS011;57225;61.460;24.060;2023-08-01T02:40:08;3.55;;;2.60;;
61756;SDS011;57225;61.460;24.060;2023-08-01T02:42:53;4.45;;;2.88;;
61756;SDS011;57225;61.460;24.060;2023-08-01T02:45:38;4.55;;;2.85;;
61756;SDS011;57225;61.460;24.060;2023-08-01T02:48:22;3.38;;;2.20;;
61756;SDS011;57225;61.460;24.060;2023-08-01T02:51:07;6.95;;;3.03;;
61756;SDS011;57225;61.460;24.060;2023-08-01T02:53:53;7.35;;;3.00;;
61756;SDS011;57225;61.460;24.060;2023-08-01T02:56:37;7.38;;;3.50;;
61756;SDS011;57225;61.460;24.060;2023-08-01T02:59:25;5.15;;;3.10;;
61756;SDS011;57225;61.460;24.060;2023-08-01T03:02:09;6.32;;;3.03;;
61756;SDS011;57225;61.460;24.060;2023-08-01T03:04:54;7.78;;;3.20;;
61756;SDS011;57225;61.460;24.060;2023-08-01T03:07:38;5.65;;;3.00;;
61756;SDS011;57225;61.460;24.060;2023-08-01T03:10:23;3.72;;;2.83;;
61756;SDS011;57225;61.460;24.060;2023-08-01T03:13:07;4.88;;;2.83;;
61756;SDS011;57225;61.460;24.060;2023-08-01T03:15:52;6.47;;;3.30;;
61756;SDS011;57225;61.460;24.060;2023-08-01T03:18:36;6.82;;;3.35;;
61756;SDS011;57225;61.460;24.060;2023-08-01T03:21:21;7.38;;;3.30;;
61756;SDS011;57225;61.460;24.060;2023-08-01T03:24:05;6.63;;;3.17;;
61756;SDS011;57225;61.460;24.060;2023-08-01T03:26:52;8.13;;;3.10;;
61756;SDS011;57225;61.460;24.060;2023-08-01T03:29:37;6.78;;;3.05;;
61756;SDS011;57225;61.460;24.060;2023-08-01T03:32:22;9.10;;;3.33;;
61756;SDS011;57225;61.460;24.060;2023-08-01T03:35:06;4.75;;;2.72;;
61756;SDS011;57225;61.460;24.060;2023-08-01T03:37:51;4.07;;;2.95;;
61756;SDS011;57225;61.460;24.060;2023-08-01T03:40:35;6.85;;;2.50;;
61756;SDS011;57225;61.460;24.060;2023-08-01T03:43:19;7.00;;;2.90;;
61756;SDS011;57225;61.460;24.060;2023-08-01T03:46:07;6.78;;;2.90;;
61756;SDS011;57225;61.460;24.060;2023-08-01T03:48:52;5.38;;;2.72;;
61756;SDS011;57225;61.460;24.060;2023-08-01T03:51:36;11.65;;;3.13;;
61756;SDS011;57225;61.460;24.060;2023-08-01T03:54:20;12.48;;;3.20;;
61756;SDS011;57225;61.460;24.060;2023-08-01T03:57:05;5.90;;;2.85;;
61756;SDS011;57225;61.460;24.060;2023-08-01T03:59:49;9.93;;;3.13;;
61756;SDS011;57225;61.460;24.060;2023-08-01T04:02:33;10.98;;;3.42;;
61756;SDS011;57225;61.460;24.060;2023-08-01T04:05:19;11.80;;;3.25;;
61756;SDS011;57225;61.460;24.060;2023-08-01T04:08:04;8.63;;;3.00;;
61756;SDS011;57225;61.460;24.060;2023-08-01T04:10:48;9.90;;;3.42;;
61756;SDS011;57225;61.460;24.060;2023-08-01T04:13:33;11.70;;;3.08;;
61756;SDS011;57225;61.460;24.060;2023-08-01T04:16:19;5.95;;;2.75;;
61756;SDS011;57225;61.460;24.060;2023-08-01T04:19:03;7.10;;;3.10;;
61756;SDS011;57225;61.460;24.060;2023-08-01T04:21:48;7.68;;;3.38;;
61756;SDS011;57225;61.460;24.060;2023-08-01T04:24:32;7.50;;;3.00;;
61756;SDS011;57225;61.460;24.060;2023-08-01T04:27:17;10.43;;;2.60;;
61756;SDS011;57225;61.460;24.060;2023-08-01T04:30:01;11.38;;;2.70;;
61756;SDS011;57225;61.460;24.060;2023-08-01T04:32:46;5.88;;;2.58;;
61756;SDS011;57225;61.460;24.060;2023-08-01T04:35:30;6.18;;;2.30;;
61756;SDS011;57225;61.460;24.060;2023-08-01T04:38:15;5.03;;;2.28;;
61756;SDS011;57225;61.460;24.060;2023-08-01T04:41:00;3.10;;;2.10;;
61756;SDS011;57225;61.460;24.060;2023-08-01T04:43:46;6.78;;;2.50;;
61756;SDS011;57225;61.460;24.060;2023-08-01T04:46:31;4.07;;;2.20;;
61756;SDS011;57225;61.460;24.060;2023-08-01T04:49:15;6.63;;;2.30;;
61756;SDS011;57225;61.460;24.060;2023-08-01T04:52:00;7.13;;;2.50;;
61756;SDS011;57225;61.460;24.060;2023-08-01T04:54:44;4.03;;;2.10;;
61756;SDS011;57225;61.460;24.060;2023-08-01T04:57:28;5.07;;;2.10;;
61756;SDS011;57225;61.460;24.060;2023-08-01T05:00:13;3.80;;;2.10;;
61756;SDS011;57225;61.460;24.060;2023-08-01T05:06:13;3.88;;;2.10;;
61756;SDS011;57225;61.460;24.060;2023-08-01T05:08:57;9.32;;;2.03;;
61756;SDS011;57225;61.460;24.060;2023-08-01T05:11:42;3.33;;;1.90;;
61756;SDS011;57225;61.460;24.060;2023-08-01T05:14:27;5.65;;;1.88;;
61756;SDS011;57225;61.460;24.060;2023-08-01T05:17:11;3.78;;;1.95;;
61756;SDS011;57225;61.460;24.060;2023-08-01T05:19:56;8.85;;;1.85;;
61756;SDS011;57225;61.460;24.060;2023-08-01T05:22:40;6.50;;;2.17;;
61756;SDS011;57225;61.460;24.060;2023-08-01T05:25:25;4.22;;;1.80;;
61756;SDS011;57225;61.460;24.060;2023-08-01T05:28:09;5.28;;;2.30;;
61756;SDS011;57225;61.460;24.060;2023-08-01T05:30:54;6.28;;;1.88;;
61756;SDS011;57225;61.460;24.060;2023-08-01T05:33:38;5.47;;;2.00;;
61756;SDS011;57225;61.460;24.060;2023-08-01T05:36:23;4.25;;;1.98;;
61756;SDS011;57225;61.460;24.060;2023-08-01T05:39:07;3.38;;;1.60;;
61756;SDS011;57225;61.460;24.060;2023-08-01T05:41:51;3.67;;;1.90;;
61756;SDS011;57225;61.460;24.060;2023-08-01T05:44:36;5.25;;;1.80;;
61756;SDS011;57225;61.460;24.060;2023-08-01T05:47:21;6.05;;;2.00;;
61756;SDS011;57225;61.460;24.060;2023-08-01T05:50:06;5.10;;;1.95;;
61756;SDS011;57225;61.460;24.060;2023-08-01T05:52:51;6.78;;;2.15;;
61756;SDS011;57225;61.460;24.060;2023-08-01T05:55:36;6.00;;;2.05;;
61756;SDS011;57225;61.460;24.060;2023-08-01T05:58:20;8.00;;;2.40;;
61756;SDS011;57225;61.460;24.060;2023-08-01T06:01:05;4.25;;;2.00;;
61756;SDS011;57225;61.460;24.060;2023-08-01T06:03:50;5.05;;;2.00;;
61756;SDS011;57225;61.460;24.060;2023-08-01T06:06:34;9.65;;;2.30;;
61756;SDS011;57225;61.460;24.060;2023-08-01T06:09:18;3.55;;;1.77;;
61756;SDS011;57225;61.460;24.060;2023-08-01T06:12:03;4.32;;;1.70;;
61756;SDS011;57225;61.460;24.060;2023-08-01T06:14:48;5.55;;;2.00;;
61756;SDS011;57225;61.460;24.060;2023-08-01T06:17:32;7.28;;;2.40;;
61756;SDS011;57225;61.460;24.060;2023-08-01T06:20:17;7.00;;;2.40;;
61756;SDS011;57225;61.460;24.060;2023-08-01T06:23:01;4.50;;;1.90;;
61756;SDS011;57225;61.460;24.060;2023-08-01T06:25:46;6.82;;;2.10;;
61756;SDS011;57225;61.460;24.060;2023-08-01T06:28:31;7.32;;;1.90;;
61756;SDS011;57225;61.460;24.060;2023-08-01T06:31:15;7.90;;;2.33;;
61756;SDS011;57225;61.460;24.060;2023-08-01T06:34:00;3.80;;;1.67;;
61756;SDS011;57225;61.460;24.060;2023-08-01T06:36:44;8.20;;;1.95;;
61756;SDS011;57225;61.460;24.060;2023-08-01T06:39:29;7.38;;;1.90;;
61756;SDS011;57225;61.460;24.060;2023-08-01T06:42:14;9.75;;;2.33;;
61756;SDS011;57225;61.460;24.060;2023-08-01T06:44:59;8.38;;;2.15;;
61756;SDS011;57225;61.460;24.060;2023-08-01T06:47:44;4.82;;;1.80;;
61756;SDS011;57225;61.460;24.060;2023-08-01T06:50:28;5.47;;;1.88;;
61756;SDS011;57225;61.460;24.060;2023-08-01T06:56:19;7.30;;;2.08;;
61756;SDS011;57225;61.460;24.060;2023-08-01T06:59:04;4.18;;;1.83;;
61756;SDS011;57225;61.460;24.060;2023-08-01T07:01:49;7.78;;;2.00;;
61756;SDS011;57225;61.460;24.060;2023-08-01T07:04:33;6.70;;;1.80;;
61756;SDS011;57225;61.460;24.060;2023-08-01T07:07:18;6.25;;;1.77;;
61756;SDS011;57225;61.460;24.060;2023-08-01T07:10:02;6.95;;;1.75;;
61756;SDS011;57225;61.460;24.060;2023-08-01T07:12:47;6.57;;;2.08;;
61756;SDS011;57225;61.460;24.060;2023-08-01T07:15:32;5.38;;;2.42;;
61756;SDS011;57225;61.460;24.060;2023-08-01T07:18:17;7.93;;;1.95;;
61756;SDS011;57225;61.460;24.060;2023-08-01T07:21:03;4.40;;;1.80;;
61756;SDS011;57225;61.460;24.060;2023-08-01T07:23:48;5.10;;;2.28;;
61756;SDS011;57225;61.460;24.060;2023-08-01T07:26:33;5.90;;;1.88;;
61756;SDS011;57225;61.460;24.060;2023-08-01T07:29:17;6.70;;;1.95;;
61756;SDS011;57225;61.460;24.060;2023-08-01T07:32:02;9.23;;;1.98;;
61756;SDS011;57225;61.460;24.060;2023-08-01T07:34:47;7.53;;;2.15;;
61756;SDS011;57225;61.460;24.060;2023-08-01T07:37:32;5.60;;;1.80;;
61756;SDS011;57225;61.460;24.060;2023-08-01T07:40:17;7.78;;;1.80;;
61756;SDS011;57225;61.460;24.060;2023-08-01T07:43:01;6.00;;;2.03;;
61756;SDS011;57225;61.460;24.060;2023-08-01T07:45:46;5.18;;;1.60;;
61756;SDS011;57225;61.460;24.060;2023-08-01T07:48:30;6.35;;;1.92;;
61756;SDS011;57225;61.460;24.060;2023-08-01T07:51:16;8.43;;;1.60;;
61756;SDS011;57225;61.460;24.060;2023-08-01T07:54:00;4.20;;;1.75;;
61756;SDS011;57225;61.460;24.060;2023-08-01T07:56:45;3.50;;;1.55;;
61756;SDS011;57225;61.460;24.060;2023-08-01T07:59:32;8.02;;;1.65;;
61756;SDS011;57225;61.460;24.060;2023-08-01T08:02:16;6.82;;;1.67;;
61756;SDS011;57225;61.460;24.060;2023-08-01T08:05:01;8.70;;;1.40;;
61756;SDS011;57225;61.460;24.060;2023-08-01T08:07:45;9.38;;;2.05;;
61756;SDS011;57225;61.460;24.060;2023-08-01T08:10:30;6.97;;;1.75;;
61756;SDS011;57225;61.460;24.060;2023-08-01T08:13:14;6.30;;;1.60;;
61756;SDS011;57225;61.460;24.060;2023-08-01T08:15:59;7.85;;;2.00;;
61756;SDS011;57225;61.460;24.060;2023-08-01T08:18:43;6.72;;;1.83;;
61756;SDS011;57225;61.460;24.060;2023-08-01T08:21:28;7.90;;;1.65;;
61756;SDS011;57225;61.460;24.060;2023-08-01T08:24:13;2.42;;;1.30;;
61756;SDS011;57225;61.460;24.060;2023-08-01T08:26:57;8.13;;;1.80;;
61756;SDS011;57225;61.460;24.060;2023-08-01T08:29:41;15.63;;;2.10;;
61756;SDS011;57225;61.460;24.060;2023-08-01T08:32:26;4.53;;;1.63;;
61756;SDS011;57225;61.460;24.060;2023-08-01T08:35:10;3.80;;;1.50;;
61756;SDS011;57225;61.460;24.060;2023-08-01T08:37:55;5.57;;;1.80;;
61756;SDS011;57225;61.460;24.060;2023-08-01T08:40:40;8.45;;;1.70;;
61756;SDS011;57225;61.460;24.060;2023-08-01T08:57:26;6.15;;;1.50;;
61756;SDS011;57225;61.460;24.060;2023-08-01T09:00:11;6.47;;;1.60;;
61756;SDS011;57225;61.460;24.060;2023-08-01T09:02:57;4.53;;;1.67;;
61756;SDS011;57225;61.460;24.060;2023-08-01T09:05:52;8.20;;;1.67;;
61756;SDS011;57225;61.460;24.060;2023-08-01T09:08:52;6.75;;;1.45;;
61756;SDS011;57225;61.460;24.060;2023-08-01T09:11:44;7.18;;;1.50;;
61756;SDS011;57225;61.460;24.060;2023-08-01T09:14:33;3.78;;;1.50;;
61756;SDS011;57225;61.460;24.060;2023-08-01T09:17:17;5.25;;;1.70;;
61756;SDS011;57225;61.460;24.060;2023-08-01T09:20:03;4.70;;;1.60;;
61756;SDS011;57225;61.460;24.060;2023-08-01T09:22:49;2.85;;;1.35;;
61756;SDS011;57225;61.460;24.060;2023-08-01T09:25:34;5.43;;;1.20;;
61756;SDS011;57225;61.460;24.060;2023-08-01T09:28:19;9.35;;;1.40;;
61756;SDS011;57225;61.460;24.060;2023-08-01T09:31:05;6.57;;;1.42;;
61756;SDS011;57225;61.460;24.060;2023-08-01T09:33:49;10.43;;;1.63;;
61756;SDS011;57225;61.460;24.060;2023-08-01T09:36:34;6.05;;;1.52;;
61756;SDS011;57225;61.460;24.060;2023-08-01T09:39:20;4.90;;;1.45;;
61756;SDS011;57225;61.460;24.060;2023-08-01T09:42:06;5.43;;;1.40;;
61756;SDS011;57225;61.460;24.060;2023-08-01T09:44:51;5.88;;;1.30;;
61756;SDS011;57225;61.460;24.060;2023-08-01T09:47:36;7.30;;;1.85;;
61756;SDS011;57225;61.460;24.060;2023-08-01T09:50:22;4.72;;;1.55;;
61756;SDS011;57225;61.460;24.060;2023-08-01T09:53:08;3.80;;;1.25;;
61756;SDS011;57225;61.460;24.060;2023-08-01T09:55:52;6.15;;;1.80;;
61756;SDS011;57225;61.460;24.060;2023-08-01T09:58:38;3.10;;;1.33;;
61756;SDS011;57225;61.460;24.060;2023-08-01T10:01:24;3.70;;;1.70;;
61756;SDS011;57225;61.460;24.060;2023-08-01T10:04:08;4.43;;;1.52;;
61756;SDS011;57225;61.460;24.060;2023-08-01T10:06:57;5.43;;;1.73;;
61756;SDS011;57225;61.460;24.060;2023-08-01T10:09:42;5.68;;;1.55;;
61756;SDS011;57225;61.460;24.060;2023-08-01T10:12:27;5.25;;;1.50;;
61756;SDS011;57225;61.460;24.060;2023-08-01T10:15:12;4.03;;;1.30;;
61756;SDS011;57225;61.460;24.060;2023-08-01T10:17:57;9.55;;;1.60;;
61756;SDS011;57225;61.460;24.060;2023-08-01T10:20:42;3.65;;;1.20;;
61756;SDS011;57225;61.460;24.060;2023-08-01T10:23:28;3.17;;;1.30;;
61756;SDS011;57225;61.460;24.060;2023-08-01T10:26:13;6.03;;;1.20;;
61756;SDS011;57225;61.460;24.060;2023-08-01T10:28:58;5.82;;;1.30;;
61756;SDS011;57225;61.460;24.060;2023-08-01T10:31:50;3.95;;;1.40;;
61756;SDS011;57225;61.460;24.060;2023-08-01T10:34:38;5.25;;;1.70;;
61756;SDS011;57225;61.460;24.060;2023-08-01T10:37:23;4.75;;;1.60;;
61756;SDS011;57225;61.460;24.060;2023-08-01T10:40:07;6.22;;;1.63;;
61756;SDS011;57225;61.460;24.060;2023-08-01T10:42:52;8.75;;;1.77;;
61756;SDS011;57225;61.460;24.060;2023-08-01T10:45:38;4.22;;;1.85;;
61756;SDS011;57225;61.460;24.060;2023-08-01T10:48:23;6.10;;;1.52;;
61756;SDS011;57225;61.460;24.060;2023-08-01T10:51:07;6.88;;;1.75;;
61756;SDS011;57225;61.460;24.060;2023-08-01T10:53:53;5.15;;;1.90;;
61756;SDS011;57225;61.460;24.060;2023-08-01T10:56:38;7.25;;;1.67;;
61756;SDS011;57225;61.460;24.060;2023-08-01T10:59:28;3.65;;;1.50;;
61756;SDS011;57225;61.460;24.060;2023-08-01T11:02:19;9.07;;;2.70;;
61756;SDS011;57225;61.460;24.060;2023-08-01T11:05:06;4.68;;;1.73;;
61756;SDS011;57225;61.460;24.060;2023-08-01T11:08:01;3.97;;;1.42;;
61756;SDS011;57225;61.460;24.060;2023-08-01T11:10:49;4.90;;;1.50;;
61756;SDS011;57225;61.460;24.060;2023-08-01T11:13:34;4.60;;;1.70;;
61756;SDS011;57225;61.460;24.060;2023-08-01T11:16:20;4.05;;;1.70;;
61756;SDS011;57225;61.460;24.060;2023-08-01T11:19:06;3.97;;;1.70;;
61756;SDS011;57225;61.460;24.060;2023-08-01T11:22:08;4.90;;;1.98;;
61756;SDS011;57225;61.460;24.060;2023-08-01T11:24:55;12.05;;;2.30;;
61756;SDS011;57225;61.460;24.060;2023-08-01T11:27:43;4.45;;;1.92;;
61756;SDS011;57225;61.460;24.060;2023-08-01T11:30:31;8.60;;;1.88;;
61756;SDS011;57225;61.460;24.060;2023-08-01T11:36:04;8.00;;;2.10;;
61756;SDS011;57225;61.460;24.060;2023-08-01T11:38:49;9.82;;;2.17;;
61756;SDS011;57225;61.460;24.060;2023-08-01T11:41:34;7.63;;;2.05;;
61756;SDS011;57225;61.460;24.060;2023-08-01T11:44:23;4.78;;;2.00;;
61756;SDS011;57225;61.460;24.060;2023-08-01T11:47:26;5.90;;;2.08;;
61756;SDS011;57225;61.460;24.060;2023-08-01T11:50:11;6.63;;;2.20;;
61756;SDS011;57225;61.460;24.060;2023-08-01T11:52:55;4.78;;;2.15;;
61756;SDS011;57225;61.460;24.060;2023-08-01T11:55:41;7.50;;;2.05;;
61756;SDS011;57225;61.460;24.060;2023-08-01T11:58:30;9.20;;;2.13;;
61756;SDS011;57225;61.460;24.060;2023-08-01T12:01:17;7.70;;;2.13;;
61756;SDS011;57225;61.460;24.060;2023-08-01T12:04:03;8.63;;;2.13;;
61756;SDS011;57225;61.460;24.060;2023-08-01T12:06:49;4.38;;;1.90;;
61756;SDS011;57225;61.460;24.060;2023-08-01T12:09:33;6.05;;;2.40;;
61756;SDS011;57225;61.460;24.060;2023-08-01T12:12:17;4.32;;;2.10;;
61756;SDS011;57225;61.460;24.060;2023-08-01T12:15:03;9.57;;;2.53;;
61756;SDS011;57225;61.460;24.060;2023-08-01T12:17:48;4.55;;;2.22;;
61756;SDS011;57225;61.460;24.060;2023-08-01T12:20:32;7.80;;;2.20;;
61756;SDS011;57225;61.460;24.060;2023-08-01T12:23:18;7.75;;;2.45;;
61756;SDS011;57225;61.460;24.060;2023-08-01T12:26:03;6.13;;;2.35;;
61756;SDS011;57225;61.460;24.060;2023-08-01T12:28:47;5.38;;;2.47;;
61756;SDS011;57225;61.460;24.060;2023-08-01T12:31:32;6.47;;;2.67;;
61756;SDS011;57225;61.460;24.060;2023-08-01T12:34:16;4.90;;;2.72;;
61756;SDS011;57225;61.460;24.060;2023-08-01T12:37:01;4.85;;;2.75;;
61756;SDS011;57225;61.460;24.060;2023-08-01T12:39:45;4.88;;;2.50;;
61756;SDS011;57225;61.460;24.060;2023-08-01T12:42:29;7.38;;;2.88;;
61756;SDS011;57225;61.460;24.060;2023-08-01T12:45:14;7.90;;;2.35;;
61756;SDS011;57225;61.460;24.060;2023-08-01T12:47:59;7.78;;;2.60;;
61756;SDS011;57225;61.460;24.060;2023-08-01T12:50:44;5.35;;;2.33;;
61756;SDS011;57225;61.460;24.060;2023-08-01T12:53:32;4.55;;;2.08;;
61756;SDS011;57225;61.460;24.060;2023-08-01T12:56:16;5.03;;;2.92;;
61756;SDS011;57225;61.460;24.060;2023-08-01T12:59:01;6.15;;;2.35;;
61756;SDS011;57225;61.460;24.060;2023-08-01T13:01:46;6.60;;;2.88;;
61756;SDS011;57225;61.460;24.060;2023-08-01T13:04:30;5.03;;;2.47;;
61756;SDS011;57225;61.460;24.060;2023-08-01T13:07:15;4.50;;;2.50;;
61756;SDS011;57225;61.460;24.060;2023-08-01T13:10:02;7.00;;;2.70;;
61756;SDS011;57225;61.460;24.060;2023-08-01T13:12:47;5.30;;;3.00;;
61756;SDS011;57225;61.460;24.060;2023-08-01T13:15:31;10.02;;;3.53;;
61756;SDS011;57225;61.460;24.060;2023-08-01T13:18:16;10.32;;;3.38;;
61756;SDS011;57225;61.460;24.060;2023-08-01T13:21:01;8.05;;;3.00;;
61756;SDS011;57225;61.460;24.060;2023-08-01T13:23:46;7.18;;;3.30;;
61756;SDS011;57225;61.460;24.060;2023-08-01T13:26:30;8.88;;;3.35;;
61756;SDS011;57225;61.460;24.060;2023-08-01T13:29:15;9.10;;;3.45;;
61756;SDS011;57225;61.460;24.060;2023-08-01T13:31:59;7.03;;;3.60;;
61756;SDS011;57225;61.460;24.060;2023-08-01T13:34:44;8.00;;;3.80;;
61756;SDS011;57225;61.460;24.060;2023-08-01T13:37:29;8.55;;;4.18;;
61756;SDS011;57225;61.460;24.060;2023-08-01T13:40:14;7.05;;;4.10;;
61756;SDS011;57225;61.460;24.060;2023-08-01T13:42:59;5.60;;;3.65;;
61756;SDS011;57225;61.460;24.060;2023-08-01T13:45:43;6.65;;;3.70;;
61756;SDS011;57225;61.460;24.060;2023-08-01T13:48:28;5.65;;;3.17;;
61756;SDS011;57225;61.460;24.060;2023-08-01T13:51:13;8.15;;;3.70;;
61756;SDS011;57225;61.460;24.060;2023-08-01T13:53:57;5.07;;;3.65;;
61756;SDS011;57225;61.460;24.060;2023-08-01T13:56:42;7.68;;;3.35;;
61756;SDS011;57225;61.460;24.060;2023-08-01T13:59:27;4.57;;;3.00;;
61756;SDS011;57225;61.460;24.060;2023-08-01T14:02:11;5.03;;;3.40;;
61756;SDS011;57225;61.460;24.060;2023-08-01T14:04:55;5.65;;;3.70;;
61756;SDS011;57225;61.460;24.060;2023-08-01T14:07:40;5.95;;;3.60;;
61756;SDS011;57225;61.460;24.060;2023-08-01T14:10:25;7.00;;;4.25;;
61756;SDS011;57225;61.460;24.060;2023-08-01T14:13:09;7.53;;;3.90;;
61756;SDS011;57225;61.460;24.060;2023-08-01T14:15:53;7.07;;;3.53;;
61756;SDS011;57225;61.460;24.060;2023-08-01T14:18:38;4.68;;;3.08;;
61756;SDS011;57225;61.460;24.060;2023-08-01T14:21:22;4.82;;;3.30;;
61756;SDS011;57225;61.460;24.060;2023-08-01T14:24:07;8.88;;;3.85;;
61756;SDS011;57225;61.460;24.060;2023-08-01T14:26:51;5.43;;;3.25;;
61756;SDS011;57225;61.460;24.060;2023-08-01T14:29:36;7.60;;;3.72;;
61756;SDS011;57225;61.460;24.060;2023-08-01T14:32:20;4.50;;;3.30;;
61756;SDS011;57225;61.460;24.060;2023-08-01T14:35:07;6.32;;;3.45;;
61756;SDS011;57225;61.460;24.060;2023-08-01T14:37:52;7.65;;;3.78;;
61756;SDS011;57225;61.460;24.060;2023-08-01T14:40:36;7.10;;;3.35;;
61756;SDS011;57225;61.460;24.060;2023-08-01T14:43:22;7.18;;;3.53;;
61756;SDS011;57225;61.460;24.060;2023-08-01T14:46:07;5.72;;;3.55;;
61756;SDS011;57225;61.460;24.060;2023-08-01T14:48:51;6.00;;;3.53;;
61756;SDS011;57225;61.460;24.060;2023-08-01T14:51:36;7.50;;;3.47;;
61756;SDS011;57225;61.460;24.060;2023-08-01T14:54:20;7.47;;;3.78;;
61756;SDS011;57225;61.460;24.060;2023-08-01T14:57:05;5.00;;;3.50;;
61756;SDS011;57225;61.460;24.060;2023-08-01T14:59:49;5.68;;;3.45;;
61756;SDS011;57225;61.460;24.060;2023-08-01T15:02:34;4.97;;;3.70;;
61756;SDS011;57225;61.460;24.060;2023-08-01T15:05:18;8.93;;;3.83;;
61756;SDS011;57225;61.460;24.060;2023-08-01T15:08:03;8.25;;;4.10;;
61756;SDS011;57225;61.460;24.060;2023-08-01T15:10:49;7.65;;;4.00;;
61756;SDS011;57225;61.460;24.060;2023-08-01T15:13:34;6.45;;;3.60;;
61756;SDS011;57225;61.460;24.060;2023-08-01T15:16:19;7.13;;;4.13;;
61756;SDS011;57225;61.460;24.060;2023-08-01T15:19:03;4.97;;;3.67;;
61756;SDS011;57225;61.460;24.060;2023-08-01T15:21:48;8.35;;;3.72;;
61756;SDS011;57225;61.460;24.060;2023-08-01T15:24:32;7.40;;;3.50;;
61756;SDS011;57225;61.460;24.060;2023-08-01T15:27:16;7.25;;;3.95;;
61756;SDS011;57225;61.460;24.060;2023-08-01T15:30:01;6.68;;;3.50;;
61756;SDS011;57225;61.460;24.060;2023-08-01T15:32:45;6.00;;;3.70;;
61756;SDS011;57225;61.460;24.060;2023-08-01T15:35:30;4.88;;;3.35;;
61756;SDS011;57225;61.460;24.060;2023-08-01T15:38:14;7.88;;;3.80;;
61756;SDS011;57225;61.460;24.060;2023-08-01T15:40:59;7.38;;;3.95;;
61756;SDS011;57225;61.460;24.060;2023-08-01T15:43:46;10.10;;;3.63;;
61756;SDS011;57225;61.460;24.060;2023-08-01T15:46:30;7.07;;;3.50;;
61756;SDS011;57225;61.460;24.060;2023-08-01T15:49:16;7.43;;;3.58;;
61756;SDS011;57225;61.460;24.060;2023-08-01T15:52:00;8.25;;;3.80;;
61756;SDS011;57225;61.460;24.060;2023-08-01T15:54:44;10.80;;;3.50;;
61756;SDS011;57225;61.460;24.060;2023-08-01T15:57:29;8.77;;;3.30;;
61756;SDS011;57225;61.460;24.060;2023-08-01T16:00:14;7.35;;;3.58;;
61756;SDS011;57225;61.460;24.060;2023-08-01T16:02:58;8.02;;;3.38;;
61756;SDS011;57225;61.460;24.060;2023-08-01T16:05:43;5.45;;;3.25;;
61756;SDS011;57225;61.460;24.060;2023-08-01T16:08:27;9.63;;;3.65;;
61756;SDS011;57225;61.460;24.060;2023-08-01T16:11:13;7.47;;;4.03;;
61756;SDS011;57225;61.460;24.060;2023-08-01T16:13:58;10.75;;;4.10;;
61756;SDS011;57225;61.460;24.060;2023-08-01T16:16:42;5.07;;;3.33;;
61756;SDS011;57225;61.460;24.060;2023-08-01T16:19:27;8.40;;;3.80;;
61756;SDS011;57225;61.460;24.060;2023-08-01T16:22:11;8.98;;;3.80;;
61756;SDS011;57225;61.460;24.060;2023-08-01T16:24:56;6.22;;;3.42;;
61756;SDS011;57225;61.460;24.060;2023-08-01T16:27:40;5.45;;;3.35;;
61756;SDS011;57225;61.460;24.060;2023-08-01T16:30:24;7.75;;;3.53;;
61756;SDS011;57225;61.460;24.060;2023-08-01T16:33:10;7.72;;;3.90;;
61756;SDS011;57225;61.460;24.060;2023-08-01T16:35:55;5.70;;;3.50;;
61756;SDS011;57225;61.460;24.060;2023-08-01T16:38:40;6.68;;;3.75;;
61756;SDS011;57225;61.460;24.060;2023-08-01T16:41:25;4.25;;;3.20;;
61756;SDS011;57225;61.460;24.060;2023-08-01T16:44:09;5.95;;;3.40;;